AFR76GQ LFPG-LFPO
Flight info
| Callsign | AFR76GQ |
|---|---|
| Flight time | N/A |
| Altitude | 9000 |
| Route | PG822 |
| Aircraft | A320/M-SDE3FGHIRWY/LB1 |
Departure
| Time | 2026-05-05 15:34 |
|---|---|
| Airport | Charles de Gaulle International Airport (LFPG) |
Arrival
| Time | N/A |
|---|---|
| Airport | Paris-Orly Airport (LFPO) |
| Time | Latitude | Longitude | Altitude | Speed | Heading |
|---|---|---|---|---|---|
| 2026-05-05 15:26 | 49.00529 | 2.56166 | 355 ft | 0 kts | 175° |
| 2026-05-05 15:26 | 49.00530 | 2.56166 | 355 ft | 1 kts | 175° |
| 2026-05-05 15:26 | 49.00544 | 2.56164 | 355 ft | 2 kts | 175° |
| 2026-05-05 15:26 | 49.00559 | 2.56162 | 355 ft | 2 kts | 175° |
| 2026-05-05 15:27 | 49.00573 | 2.56160 | 355 ft | 2 kts | 174° |
| 2026-05-05 15:27 | 49.00588 | 2.56162 | 355 ft | 2 kts | 202° |
| 2026-05-05 15:27 | 49.00601 | 2.56173 | 355 ft | 2 kts | 223° |
| 2026-05-05 15:27 | 49.00610 | 2.56190 | 356 ft | 2 kts | 245° |
| 2026-05-05 15:28 | 49.00614 | 2.56208 | 356 ft | 0 kts | 263° |
| 2026-05-05 15:28 | 49.00614 | 2.56217 | 356 ft | 1 kts | 268° |
| 2026-05-05 15:28 | 49.00614 | 2.56219 | 356 ft | 0 kts | 267° |
| 2026-05-05 15:30 | 49.00613 | 2.56197 | 356 ft | 8 kts | 267° |
| 2026-05-05 15:30 | 49.00606 | 2.56092 | 354 ft | 11 kts | 261° |
| 2026-05-05 15:30 | 49.00580 | 2.55964 | 352 ft | 14 kts | 259° |
| 2026-05-05 15:30 | 49.00565 | 2.55801 | 349 ft | 16 kts | 265° |
| 2026-05-05 15:31 | 49.00556 | 2.55613 | 347 ft | 19 kts | 266° |
| 2026-05-05 15:31 | 49.00541 | 2.55410 | 344 ft | 19 kts | 244° |
| 2026-05-05 15:31 | 49.00420 | 2.55339 | 341 ft | 20 kts | 163° |
| 2026-05-05 15:31 | 49.00282 | 2.55402 | 340 ft | 21 kts | 163° |
| 2026-05-05 15:32 | 49.00138 | 2.55459 | 340 ft | 21 kts | 165° |
| 2026-05-05 15:32 | 48.99996 | 2.55527 | 339 ft | 21 kts | 163° |
| 2026-05-05 15:32 | 48.99866 | 2.55629 | 340 ft | 20 kts | 126° |
| 2026-05-05 15:32 | 48.99802 | 2.55796 | 342 ft | 16 kts | 155° |
| 2026-05-05 15:33 | 48.99688 | 2.55814 | 342 ft | 16 kts | 176° |
| 2026-05-05 15:33 | 48.99603 | 2.55837 | 341 ft | 9 kts | 140° |
| 2026-05-05 15:33 | 48.99603 | 2.55928 | 342 ft | 9 kts | 85° |
| 2026-05-05 15:33 | 48.99627 | 2.56306 | 347 ft | 72 kts | 85° |
| 2026-05-05 15:34 | 48.99685 | 2.57425 | 349 ft | 137 kts | 83° |
| 2026-05-05 15:34 | 48.99763 | 2.59097 | 561 ft | 169 kts | 83° |
| 2026-05-05 15:34 | 48.99852 | 2.60881 | 1199 ft | 174 kts | 81° |
| 2026-05-05 15:34 | 48.99961 | 2.62768 | 1745 ft | 187 kts | 81° |
| 2026-05-05 15:35 | 49.00092 | 2.64881 | 1928 ft | 218 kts | 82° |
| 2026-05-05 15:35 | 49.00233 | 2.67379 | 1966 ft | 248 kts | 82° |
| 2026-05-05 15:35 | 49.00372 | 2.70009 | 1979 ft | 252 kts | 83° |
| 2026-05-05 15:35 | 49.00510 | 2.72646 | 1990 ft | 254 kts | 85° |
| 2026-05-05 15:36 | 49.00218 | 2.75364 | 2354 ft | 271 kts | 116° |
| 2026-05-05 15:36 | 48.98908 | 2.77342 | 3355 ft | 275 kts | 151° |
| 2026-05-05 15:36 | 48.97070 | 2.78005 | 4353 ft | 275 kts | 174° |
| 2026-05-05 15:36 | 48.95177 | 2.78214 | 5198 ft | 278 kts | 174° |
| 2026-05-05 15:37 | 48.93245 | 2.78487 | 6053 ft | 281 kts | 172° |
| 2026-05-05 15:37 | 48.91316 | 2.78820 | 6916 ft | 283 kts | 171° |
| 2026-05-05 15:37 | 48.89336 | 2.79201 | 7778 ft | 286 kts | 171° |
| 2026-05-05 15:37 | 48.87374 | 2.79600 | 8404 ft | 288 kts | 171° |
| 2026-05-05 15:38 | 48.85400 | 2.80014 | 8742 ft | 289 kts | 171° |
| 2026-05-05 15:38 | 48.83395 | 2.80437 | 8796 ft | 288 kts | 171° |
| 2026-05-05 15:38 | 48.81409 | 2.80856 | 8798 ft | 288 kts | 171° |
| 2026-05-05 15:38 | 48.79427 | 2.81276 | 8804 ft | 288 kts | 170° |
| 2026-05-05 15:39 | 48.77453 | 2.81694 | 8803 ft | 288 kts | 170° |
| 2026-05-05 15:39 | 48.75452 | 2.82118 | 8802 ft | 288 kts | 170° |
| 2026-05-05 15:39 | 48.73472 | 2.82324 | 8789 ft | 290 kts | 187° |
| 2026-05-05 15:39 | 48.71617 | 2.81165 | 8795 ft | 293 kts | 219° |
| 2026-05-05 15:40 | 48.70243 | 2.78892 | 8810 ft | 294 kts | 231° |
| 2026-05-05 15:40 | 48.68973 | 2.76484 | 8805 ft | 293 kts | 231° |
| 2026-05-05 15:40 | 48.67692 | 2.74084 | 8810 ft | 294 kts | 231° |
| 2026-05-05 15:40 | 48.66408 | 2.71717 | 8808 ft | 294 kts | 231° |
| 2026-05-05 15:41 | 48.65100 | 2.69329 | 8809 ft | 294 kts | 230° |
| 2026-05-05 15:41 | 48.63788 | 2.66947 | 8809 ft | 294 kts | 230° |
| 2026-05-05 15:41 | 48.62471 | 2.64565 | 8812 ft | 294 kts | 230° |
| 2026-05-05 15:41 | 48.61160 | 2.62204 | 8813 ft | 294 kts | 230° |
| 2026-05-05 15:42 | 48.59852 | 2.59849 | 8814 ft | 294 kts | 230° |
| 2026-05-05 15:42 | 48.58532 | 2.57474 | 8816 ft | 294 kts | 230° |
| 2026-05-05 15:42 | 48.57221 | 2.55123 | 8801 ft | 294 kts | 230° |
| 2026-05-05 15:42 | 48.55913 | 2.52778 | 8679 ft | 293 kts | 231° |
| 2026-05-05 15:43 | 48.54606 | 2.50434 | 8555 ft | 292 kts | 231° |
| 2026-05-05 15:43 | 48.53302 | 2.48093 | 8403 ft | 287 kts | 231° |
| 2026-05-05 15:43 | 48.52012 | 2.45787 | 8281 ft | 291 kts | 231° |
| 2026-05-05 15:43 | 48.50717 | 2.43475 | 8159 ft | 290 kts | 231° |
| 2026-05-05 15:44 | 48.49416 | 2.41161 | 8028 ft | 287 kts | 232° |
| 2026-05-05 15:44 | 48.48150 | 2.38902 | 7854 ft | 280 kts | 232° |
| 2026-05-05 15:44 | 48.47119 | 2.36485 | 7710 ft | 272 kts | 253° |
| 2026-05-05 15:44 | 48.46831 | 2.33696 | 7575 ft | 267 kts | 273° |
| 2026-05-05 15:45 | 48.46910 | 2.30990 | 7485 ft | 256 kts | 275° |
| 2026-05-05 15:45 | 48.47010 | 2.28381 | 7369 ft | 245 kts | 276° |
| 2026-05-05 15:45 | 48.47364 | 2.25950 | 7250 ft | 234 kts | 295° |
| 2026-05-05 15:45 | 48.48198 | 2.23865 | 7113 ft | 234 kts | 306° |
| 2026-05-05 15:46 | 48.49166 | 2.21889 | 6960 ft | 232 kts | 307° |
| 2026-05-05 15:46 | 48.50121 | 2.19946 | 6782 ft | 232 kts | 308° |
| 2026-05-05 15:46 | 48.51073 | 2.17995 | 6529 ft | 231 kts | 309° |
| 2026-05-05 15:46 | 48.52026 | 2.16039 | 6249 ft | 231 kts | 308° |
| 2026-05-05 15:47 | 48.52972 | 2.14092 | 5970 ft | 229 kts | 308° |
| 2026-05-05 15:47 | 48.53595 | 2.12803 | 5790 ft | 229 kts | 308° |
| 2026-05-05 15:47 | 48.54837 | 2.10229 | 5419 ft | 227 kts | 308° |
| 2026-05-05 15:47 | 48.55764 | 2.08298 | 5167 ft | 224 kts | 308° |
| 2026-05-05 15:48 | 48.56670 | 2.06410 | 4872 ft | 224 kts | 308° |
| 2026-05-05 15:48 | 48.57585 | 2.04505 | 4597 ft | 223 kts | 308° |
| 2026-05-05 15:48 | 48.58586 | 2.02746 | 4278 ft | 222 kts | 327° |
| 2026-05-05 15:48 | 48.60035 | 2.02148 | 4002 ft | 217 kts | 9° |
| 2026-05-05 15:49 | 48.61372 | 2.03143 | 3996 ft | 222 kts | 38° |
| 2026-05-05 15:49 | 48.62388 | 2.04862 | 3984 ft | 213 kts | 52° |
| 2026-05-05 15:49 | 48.63157 | 2.06710 | 3977 ft | 201 kts | 55° |
| 2026-05-05 15:49 | 48.63828 | 2.08489 | 3798 ft | 195 kts | 57° |
| 2026-05-05 15:50 | 48.64467 | 2.10266 | 3512 ft | 191 kts | 58° |
| 2026-05-05 15:50 | 48.65083 | 2.12019 | 3237 ft | 185 kts | 58° |
| 2026-05-05 15:50 | 48.65657 | 2.13670 | 2994 ft | 169 kts | 58° |
| 2026-05-05 15:50 | 48.66198 | 2.15220 | 2759 ft | 165 kts | 57° |
| 2026-05-05 15:51 | 48.66713 | 2.16692 | 2528 ft | 153 kts | 58° |
| 2026-05-05 15:51 | 48.67191 | 2.18057 | 2304 ft | 139 kts | 57° |
| 2026-05-05 15:51 | 48.67624 | 2.19293 | 2122 ft | 131 kts | 57° |
| 2026-05-05 15:51 | 48.68055 | 2.20517 | 1961 ft | 131 kts | 57° |
| 2026-05-05 15:52 | 48.68480 | 2.21721 | 1805 ft | 130 kts | 57° |
| 2026-05-05 15:52 | 48.68909 | 2.22937 | 1649 ft | 130 kts | 57° |
| 2026-05-05 15:52 | 48.69329 | 2.24133 | 1479 ft | 130 kts | 57° |
| 2026-05-05 15:52 | 48.69521 | 2.24681 | 1399 ft | 130 kts | 56° |